sensor_id;sensor_type;location;lat;lon;timestamp;pressure;altitude;pressure_sealevel;temperature;humidity
42415;BME280;28058;46.344;17.786;2023-02-28T00:00:27;118336.50;;;-144.97;100.00
42415;BME280;28058;46.344;17.786;2023-02-28T00:02:54;118336.50;;;-144.97;100.00
42415;BME280;28058;46.344;17.786;2023-02-28T00:05:23;118336.50;;;-144.97;100.00
42415;BME280;28058;46.344;17.786;2023-02-28T00:07:50;118336.50;;;-144.97;100.00
42415;BME280;28058;46.344;17.786;2023-02-28T00:10:23;118336.50;;;-144.97;100.00
42415;BME280;28058;46.344;17.786;2023-02-28T00:12:51;118336.50;;;-144.97;100.00
42415;BME280;28058;46.344;17.786;2023-02-28T00:15:18;118336.50;;;-144.97;100.00
42415;BME280;28058;46.344;17.786;2023-02-28T00:17:46;118336.50;;;-144.97;100.00
42415;BME280;28058;46.344;17.786;2023-02-28T00:20:13;118336.50;;;-144.97;100.00
42415;BME280;28058;46.344;17.786;2023-02-28T00:22:43;118336.50;;;-144.97;100.00
42415;BME280;28058;46.344;17.786;2023-02-28T00:25:12;118336.50;;;-144.97;100.00
42415;BME280;28058;46.344;17.786;2023-02-28T00:27:40;118336.50;;;-144.97;100.00
42415;BME280;28058;46.344;17.786;2023-02-28T00:30:12;118336.50;;;-144.97;100.00
42415;BME280;28058;46.344;17.786;2023-02-28T00:32:40;118336.50;;;-144.97;100.00
42415;BME280;28058;46.344;17.786;2023-02-28T00:35:08;118336.50;;;-144.97;100.00
42415;BME280;28058;46.344;17.786;2023-02-28T00:37:35;118336.50;;;-144.97;100.00
42415;BME280;28058;46.344;17.786;2023-02-28T00:40:03;118336.50;;;-144.97;100.00
42415;BME280;28058;46.344;17.786;2023-02-28T00:42:38;118336.50;;;-144.97;100.00
42415;BME280;28058;46.344;17.786;2023-02-28T00:45:05;118336.50;;;-144.97;100.00
42415;BME280;28058;46.344;17.786;2023-02-28T00:47:32;118336.50;;;-144.97;100.00
42415;BME280;28058;46.344;17.786;2023-02-28T00:49:59;118336.50;;;-144.97;100.00
42415;BME280;28058;46.344;17.786;2023-02-28T00:52:26;118336.50;;;-144.97;100.00
42415;BME280;28058;46.344;17.786;2023-02-28T00:54:53;118336.50;;;-144.97;100.00
42415;BME280;28058;46.344;17.786;2023-02-28T00:57:21;118336.50;;;-144.97;100.00
42415;BME280;28058;46.344;17.786;2023-02-28T00:59:47;118336.50;;;-144.97;100.00
42415;BME280;28058;46.344;17.786;2023-02-28T01:02:14;118336.50;;;-144.97;100.00
42415;BME280;28058;46.344;17.786;2023-02-28T01:04:41;118336.50;;;-144.97;100.00
42415;BME280;28058;46.344;17.786;2023-02-28T01:07:08;118336.50;;;-144.97;100.00
42415;BME280;28058;46.344;17.786;2023-02-28T01:09:35;118336.50;;;-144.97;100.00
42415;BME280;28058;46.344;17.786;2023-02-28T01:12:02;118336.50;;;-144.97;100.00
42415;BME280;28058;46.344;17.786;2023-02-28T01:14:29;118336.50;;;-144.97;100.00
42415;BME280;28058;46.344;17.786;2023-02-28T01:16:55;118336.50;;;-144.97;100.00
42415;BME280;28058;46.344;17.786;2023-02-28T01:19:22;118336.50;;;-144.97;100.00
42415;BME280;28058;46.344;17.786;2023-02-28T01:21:50;118336.50;;;-144.97;100.00
42415;BME280;28058;46.344;17.786;2023-02-28T01:24:17;118336.50;;;-144.97;100.00
42415;BME280;28058;46.344;17.786;2023-02-28T01:26:43;118336.50;;;-144.97;100.00
42415;BME280;28058;46.344;17.786;2023-02-28T01:29:10;118336.50;;;-144.97;100.00
42415;BME280;28058;46.344;17.786;2023-02-28T01:31:37;118336.50;;;-144.97;100.00
42415;BME280;28058;46.344;17.786;2023-02-28T01:34:04;118336.50;;;-144.97;100.00
42415;BME280;28058;46.344;17.786;2023-02-28T01:36:33;118336.50;;;-144.97;100.00
42415;BME280;28058;46.344;17.786;2023-02-28T01:39:00;118336.50;;;-144.97;100.00
42415;BME280;28058;46.344;17.786;2023-02-28T01:41:29;118336.50;;;-144.97;100.00
42415;BME280;28058;46.344;17.786;2023-02-28T01:44:53;118336.50;;;-144.97;100.00
42415;BME280;28058;46.344;17.786;2023-02-28T01:46:52;118336.50;;;-144.97;100.00
42415;BME280;28058;46.344;17.786;2023-02-28T01:49:19;118336.50;;;-144.97;100.00
42415;BME280;28058;46.344;17.786;2023-02-28T01:51:50;118336.50;;;-144.97;100.00
42415;BME280;28058;46.344;17.786;2023-02-28T01:54:28;118336.50;;;-144.97;100.00
42415;BME280;28058;46.344;17.786;2023-02-28T01:57:01;118336.50;;;-144.97;100.00
42415;BME280;28058;46.344;17.786;2023-02-28T01:59:39;118336.50;;;-144.97;100.00
42415;BME280;28058;46.344;17.786;2023-02-28T02:02:17;118336.50;;;-144.97;100.00
42415;BME280;28058;46.344;17.786;2023-02-28T02:05:23;118336.50;;;-144.97;100.00
42415;BME280;28058;46.344;17.786;2023-02-28T02:07:43;118336.50;;;-144.97;100.00
42415;BME280;28058;46.344;17.786;2023-02-28T02:10:20;118336.50;;;-144.97;100.00
42415;BME280;28058;46.344;17.786;2023-02-28T02:15:34;118336.50;;;-144.97;100.00
42415;BME280;28058;46.344;17.786;2023-02-28T02:18:37;118336.50;;;-144.97;100.00
42415;BME280;28058;46.344;17.786;2023-02-28T02:35:28;118336.50;;;-144.97;100.00
42415;BME280;28058;46.344;17.786;2023-02-28T02:38:23;118336.50;;;-144.97;100.00
42415;BME280;28058;46.344;17.786;2023-02-28T02:41:18;118336.50;;;-144.97;100.00
42415;BME280;28058;46.344;17.786;2023-02-28T02:44:11;118336.50;;;-144.97;100.00
42415;BME280;28058;46.344;17.786;2023-02-28T02:46:44;118336.50;;;-144.97;100.00
42415;BME280;28058;46.344;17.786;2023-02-28T02:49:19;118336.50;;;-144.97;100.00
42415;BME280;28058;46.344;17.786;2023-02-28T02:51:48;118336.50;;;-144.97;100.00
42415;BME280;28058;46.344;17.786;2023-02-28T02:54:20;118336.50;;;-144.97;100.00
42415;BME280;28058;46.344;17.786;2023-02-28T02:56:49;118336.50;;;-144.97;100.00
42415;BME280;28058;46.344;17.786;2023-02-28T02:59:20;118336.50;;;-144.97;100.00
42415;BME280;28058;46.344;17.786;2023-02-28T03:02:14;118336.50;;;-144.97;100.00
42415;BME280;28058;46.344;17.786;2023-02-28T03:04:51;118336.50;;;-144.97;100.00
42415;BME280;28058;46.344;17.786;2023-02-28T03:07:19;118336.50;;;-144.97;100.00
42415;BME280;28058;46.344;17.786;2023-02-28T03:09:53;118336.50;;;-144.97;100.00
42415;BME280;28058;46.344;17.786;2023-02-28T03:12:24;118336.50;;;-144.97;100.00
42415;BME280;28058;46.344;17.786;2023-02-28T03:17:43;118336.50;;;-144.97;100.00
42415;BME280;28058;46.344;17.786;2023-02-28T03:23:19;118336.50;;;-144.97;100.00
42415;BME280;28058;46.344;17.786;2023-02-28T03:26:07;118336.50;;;-144.97;100.00
42415;BME280;28058;46.344;17.786;2023-02-28T03:31:59;118336.50;;;-144.97;100.00
42415;BME280;28058;46.344;17.786;2023-02-28T03:34:37;118336.50;;;-144.97;100.00
42415;BME280;28058;46.344;17.786;2023-02-28T03:37:11;118336.50;;;-144.97;100.00
42415;BME280;28058;46.344;17.786;2023-02-28T03:39:43;118336.50;;;-144.97;100.00
42415;BME280;28058;46.344;17.786;2023-02-28T03:42:19;118336.50;;;-144.97;100.00
42415;BME280;28058;46.344;17.786;2023-02-28T03:44:54;118336.50;;;-144.97;100.00
42415;BME280;28058;46.344;17.786;2023-02-28T03:47:36;118336.50;;;-144.97;100.00
42415;BME280;28058;46.344;17.786;2023-02-28T03:50:21;118336.50;;;-144.97;100.00
42415;BME280;28058;46.344;17.786;2023-02-28T03:53:01;118336.50;;;-144.97;100.00
42415;BME280;28058;46.344;17.786;2023-02-28T03:55:41;118336.50;;;-144.97;100.00
42415;BME280;28058;46.344;17.786;2023-02-28T03:58:37;118336.50;;;-144.97;100.00
42415;BME280;28058;46.344;17.786;2023-02-28T04:01:54;118336.50;;;-144.97;100.00
42415;BME280;28058;46.344;17.786;2023-02-28T04:03:56;118336.50;;;-144.97;100.00
42415;BME280;28058;46.344;17.786;2023-02-28T04:06:23;118336.50;;;-144.97;100.00
42415;BME280;28058;46.344;17.786;2023-02-28T04:08:51;118336.50;;;-144.97;100.00
42415;BME280;28058;46.344;17.786;2023-02-28T04:11:22;118336.50;;;-144.97;100.00
42415;BME280;28058;46.344;17.786;2023-02-28T04:13:50;118336.50;;;-144.97;100.00
42415;BME280;28058;46.344;17.786;2023-02-28T04:16:17;118336.50;;;-144.97;100.00
42415;BME280;28058;46.344;17.786;2023-02-28T04:18:59;118336.50;;;-144.97;100.00
42415;BME280;28058;46.344;17.786;2023-02-28T04:21:29;118336.50;;;-144.97;100.00
42415;BME280;28058;46.344;17.786;2023-02-28T04:23:57;118336.50;;;-144.97;100.00
42415;BME280;28058;46.344;17.786;2023-02-28T04:26:37;118336.50;;;-144.97;100.00
42415;BME280;28058;46.344;17.786;2023-02-28T04:29:05;118336.50;;;-144.97;100.00
42415;BME280;28058;46.344;17.786;2023-02-28T04:31:33;118336.50;;;-144.97;100.00
42415;BME280;28058;46.344;17.786;2023-02-28T04:34:00;118336.50;;;-144.97;100.00
42415;BME280;28058;46.344;17.786;2023-02-28T04:36:27;118336.50;;;-144.97;100.00
42415;BME280;28058;46.344;17.786;2023-02-28T04:38:55;118336.50;;;-144.97;100.00
42415;BME280;28058;46.344;17.786;2023-02-28T04:41:22;118336.50;;;-144.97;100.00
42415;BME280;28058;46.344;17.786;2023-02-28T04:43:51;118336.50;;;-144.97;100.00
42415;BME280;28058;46.344;17.786;2023-02-28T04:46:18;118336.50;;;-144.97;100.00
42415;BME280;28058;46.344;17.786;2023-02-28T04:48:45;118336.50;;;-144.97;100.00
42415;BME280;28058;46.344;17.786;2023-02-28T04:51:14;118336.50;;;-144.97;100.00
42415;BME280;28058;46.344;17.786;2023-02-28T04:53:42;118336.50;;;-144.97;100.00
42415;BME280;28058;46.344;17.786;2023-02-28T04:56:12;118336.50;;;-144.97;100.00
42415;BME280;28058;46.344;17.786;2023-02-28T04:58:39;118336.50;;;-144.97;100.00
42415;BME280;28058;46.344;17.786;2023-02-28T05:01:16;118336.50;;;-144.97;100.00
42415;BME280;28058;46.344;17.786;2023-02-28T05:03:43;118336.50;;;-144.97;100.00
42415;BME280;28058;46.344;17.786;2023-02-28T05:06:11;118336.50;;;-144.97;100.00
42415;BME280;28058;46.344;17.786;2023-02-28T05:08:39;118336.50;;;-144.97;100.00
42415;BME280;28058;46.344;17.786;2023-02-28T05:11:12;118336.50;;;-144.97;100.00
42415;BME280;28058;46.344;17.786;2023-02-28T05:13:40;118336.50;;;-144.97;100.00
42415;BME280;28058;46.344;17.786;2023-02-28T05:16:07;118336.50;;;-144.97;100.00
42415;BME280;28058;46.344;17.786;2023-02-28T05:18:33;118336.50;;;-144.97;100.00
42415;BME280;28058;46.344;17.786;2023-02-28T05:21:00;118336.50;;;-144.97;100.00
42415;BME280;28058;46.344;17.786;2023-02-28T05:23:30;118336.50;;;-144.97;100.00
42415;BME280;28058;46.344;17.786;2023-02-28T05:25:57;118336.50;;;-144.97;100.00
42415;BME280;28058;46.344;17.786;2023-02-28T05:28:24;118336.50;;;-144.97;100.00
42415;BME280;28058;46.344;17.786;2023-02-28T05:30:50;118336.50;;;-144.97;100.00
42415;BME280;28058;46.344;17.786;2023-02-28T05:33:17;118336.50;;;-144.97;100.00
42415;BME280;28058;46.344;17.786;2023-02-28T05:35:44;118336.50;;;-144.97;100.00
42415;BME280;28058;46.344;17.786;2023-02-28T05:38:11;118336.50;;;-144.97;100.00
42415;BME280;28058;46.344;17.786;2023-02-28T05:40:39;118336.50;;;-144.97;100.00
42415;BME280;28058;46.344;17.786;2023-02-28T05:43:10;118336.50;;;-144.97;100.00
42415;BME280;28058;46.344;17.786;2023-02-28T05:45:37;118336.50;;;-144.97;100.00
42415;BME280;28058;46.344;17.786;2023-02-28T05:48:04;118336.50;;;-144.97;100.00
42415;BME280;28058;46.344;17.786;2023-02-28T05:50:31;118336.50;;;-144.97;100.00
42415;BME280;28058;46.344;17.786;2023-02-28T05:52:58;118336.50;;;-144.97;100.00
42415;BME280;28058;46.344;17.786;2023-02-28T05:55:25;118336.50;;;-144.97;100.00
42415;BME280;28058;46.344;17.786;2023-02-28T05:57:52;118336.50;;;-144.97;100.00
42415;BME280;28058;46.344;17.786;2023-02-28T06:00:19;118336.50;;;-144.97;100.00
42415;BME280;28058;46.344;17.786;2023-02-28T06:02:46;118336.50;;;-144.97;100.00
42415;BME280;28058;46.344;17.786;2023-02-28T06:05:15;118336.50;;;-144.97;100.00
42415;BME280;28058;46.344;17.786;2023-02-28T06:07:43;118336.50;;;-144.97;100.00
42415;BME280;28058;46.344;17.786;2023-02-28T06:10:11;118336.50;;;-144.97;100.00
42415;BME280;28058;46.344;17.786;2023-02-28T06:12:38;118336.50;;;-144.97;100.00
42415;BME280;28058;46.344;17.786;2023-02-28T06:15:05;118336.50;;;-144.97;100.00
42415;BME280;28058;46.344;17.786;2023-02-28T06:17:32;118336.50;;;-144.97;100.00
42415;BME280;28058;46.344;17.786;2023-02-28T06:19:59;118336.50;;;-144.97;100.00
42415;BME280;28058;46.344;17.786;2023-02-28T06:22:26;118336.50;;;-144.97;100.00
42415;BME280;28058;46.344;17.786;2023-02-28T06:24:52;118336.50;;;-144.97;100.00
42415;BME280;28058;46.344;17.786;2023-02-28T06:27:21;118336.50;;;-144.97;100.00
42415;BME280;28058;46.344;17.786;2023-02-28T06:29:48;118336.50;;;-144.97;100.00
42415;BME280;28058;46.344;17.786;2023-02-28T06:32:15;118336.50;;;-144.97;100.00
42415;BME280;28058;46.344;17.786;2023-02-28T06:34:42;118336.50;;;-144.97;100.00
42415;BME280;28058;46.344;17.786;2023-02-28T06:37:09;118336.50;;;-144.97;100.00
42415;BME280;28058;46.344;17.786;2023-02-28T06:39:35;118336.50;;;-144.97;100.00
42415;BME280;28058;46.344;17.786;2023-02-28T06:42:03;118336.50;;;-144.97;100.00
42415;BME280;28058;46.344;17.786;2023-02-28T06:44:30;118336.50;;;-144.97;100.00
42415;BME280;28058;46.344;17.786;2023-02-28T06:47:02;118336.50;;;-144.97;100.00
42415;BME280;28058;46.344;17.786;2023-02-28T06:49:34;118336.50;;;-144.97;100.00
42415;BME280;28058;46.344;17.786;2023-02-28T06:52:02;118336.50;;;-144.97;100.00
42415;BME280;28058;46.344;17.786;2023-02-28T06:54:29;118336.50;;;-144.97;100.00
42415;BME280;28058;46.344;17.786;2023-02-28T06:56:57;118336.50;;;-144.97;100.00
42415;BME280;28058;46.344;17.786;2023-02-28T06:59:24;118336.50;;;-144.97;100.00
42415;BME280;28058;46.344;17.786;2023-02-28T07:01:51;118336.50;;;-144.97;100.00
42415;BME280;28058;46.344;17.786;2023-02-28T07:04:18;118336.50;;;-144.97;100.00
42415;BME280;28058;46.344;17.786;2023-02-28T07:06:45;118336.50;;;-144.97;100.00
42415;BME280;28058;46.344;17.786;2023-02-28T07:09:12;118336.50;;;-144.97;100.00
42415;BME280;28058;46.344;17.786;2023-02-28T07:11:40;118336.50;;;-144.97;100.00
42415;BME280;28058;46.344;17.786;2023-02-28T07:14:09;118336.50;;;-144.97;100.00
42415;BME280;28058;46.344;17.786;2023-02-28T07:16:36;118336.50;;;-144.97;100.00
42415;BME280;28058;46.344;17.786;2023-02-28T07:19:03;118336.50;;;-144.97;100.00
42415;BME280;28058;46.344;17.786;2023-02-28T07:21:30;118336.50;;;-144.97;100.00
42415;BME280;28058;46.344;17.786;2023-02-28T07:23:57;118336.50;;;-144.97;100.00
42415;BME280;28058;46.344;17.786;2023-02-28T07:26:24;118336.50;;;-144.97;100.00
42415;BME280;28058;46.344;17.786;2023-02-28T07:28:51;118336.50;;;-144.97;100.00
42415;BME280;28058;46.344;17.786;2023-02-28T07:31:18;118336.50;;;-144.97;100.00
42415;BME280;28058;46.344;17.786;2023-02-28T07:33:45;118336.50;;;-144.97;100.00
42415;BME280;28058;46.344;17.786;2023-02-28T07:36:14;118336.50;;;-144.97;100.00
42415;BME280;28058;46.344;17.786;2023-02-28T07:38:43;118336.50;;;-144.97;100.00
42415;BME280;28058;46.344;17.786;2023-02-28T07:41:14;118336.50;;;-144.97;100.00
42415;BME280;28058;46.344;17.786;2023-02-28T07:43:41;118336.50;;;-144.97;100.00
42415;BME280;28058;46.344;17.786;2023-02-28T07:46:10;118336.50;;;-144.97;100.00
42415;BME280;28058;46.344;17.786;2023-02-28T07:48:38;118336.50;;;-144.97;100.00
42415;BME280;28058;46.344;17.786;2023-02-28T07:51:05;118336.50;;;-144.97;100.00
42415;BME280;28058;46.344;17.786;2023-02-28T07:53:32;118336.50;;;-144.97;100.00
42415;BME280;28058;46.344;17.786;2023-02-28T07:56:00;118336.50;;;-144.97;100.00
42415;BME280;28058;46.344;17.786;2023-02-28T07:58:29;118336.50;;;-144.97;100.00
42415;BME280;28058;46.344;17.786;2023-02-28T08:00:57;118336.50;;;-144.97;100.00
42415;BME280;28058;46.344;17.786;2023-02-28T08:03:24;118336.50;;;-144.97;100.00
42415;BME280;28058;46.344;17.786;2023-02-28T08:05:51;118336.50;;;-144.97;100.00
42415;BME280;28058;46.344;17.786;2023-02-28T08:08:19;118336.50;;;-144.97;100.00
42415;BME280;28058;46.344;17.786;2023-02-28T08:10:46;118336.50;;;-144.97;100.00
42415;BME280;28058;46.344;17.786;2023-02-28T08:13:12;118336.50;;;-144.97;100.00
42415;BME280;28058;46.344;17.786;2023-02-28T08:15:41;118336.50;;;-144.97;100.00
42415;BME280;28058;46.344;17.786;2023-02-28T08:18:09;118336.50;;;-144.97;100.00
42415;BME280;28058;46.344;17.786;2023-02-28T08:20:36;118336.50;;;-144.97;100.00
42415;BME280;28058;46.344;17.786;2023-02-28T08:23:03;118336.50;;;-144.97;100.00
42415;BME280;28058;46.344;17.786;2023-02-28T08:25:30;118336.50;;;-144.97;100.00
42415;BME280;28058;46.344;17.786;2023-02-28T08:27:56;118336.50;;;-144.97;100.00
42415;BME280;28058;46.344;17.786;2023-02-28T08:30:23;118336.50;;;-144.97;100.00
42415;BME280;28058;46.344;17.786;2023-02-28T08:32:50;118336.50;;;-144.97;100.00
42415;BME280;28058;46.344;17.786;2023-02-28T08:35:17;118336.50;;;-144.97;100.00
42415;BME280;28058;46.344;17.786;2023-02-28T08:37:44;118336.50;;;-144.97;100.00
42415;BME280;28058;46.344;17.786;2023-02-28T08:40:11;118336.50;;;-144.97;100.00
42415;BME280;28058;46.344;17.786;2023-02-28T08:42:45;118336.50;;;-144.97;100.00
42415;BME280;28058;46.344;17.786;2023-02-28T08:45:12;118336.50;;;-144.97;100.00
42415;BME280;28058;46.344;17.786;2023-02-28T08:47:40;118336.50;;;-144.97;87.69
42415;BME280;28058;46.344;17.786;2023-02-28T08:50:09;118336.50;;;-144.97;88.38
42415;BME280;28058;46.344;17.786;2023-02-28T08:52:36;118336.50;;;-144.97;81.99
42415;BME280;28058;46.344;17.786;2023-02-28T08:55:02;118336.50;;;-144.97;82.62
42415;BME280;28058;46.344;17.786;2023-02-28T08:57:29;118336.50;;;-144.97;87.70
42415;BME280;28058;46.344;17.786;2023-02-28T08:59:56;118336.50;;;-144.97;79.04
42415;BME280;28058;46.344;17.786;2023-02-28T09:02:23;118336.50;;;-144.97;78.38
42415;BME280;28058;46.344;17.786;2023-02-28T09:04:50;118336.50;;;-144.97;84.25
42415;BME280;28058;46.344;17.786;2023-02-28T09:07:17;118336.50;;;-144.97;88.45
42415;BME280;28058;46.344;17.786;2023-02-28T09:09:44;118336.50;;;-144.97;86.06
42415;BME280;28058;46.344;17.786;2023-02-28T09:12:25;118336.50;;;-144.97;86.31
42415;BME280;28058;46.344;17.786;2023-02-28T09:14:52;118336.50;;;-144.97;90.65
42415;BME280;28058;46.344;17.786;2023-02-28T09:17:20;118336.50;;;-144.97;92.73
42415;BME280;28058;46.344;17.786;2023-02-28T09:19:48;118336.50;;;-144.97;89.39
42415;BME280;28058;46.344;17.786;2023-02-28T09:22:15;118336.50;;;-144.97;90.13
42415;BME280;28058;46.344;17.786;2023-02-28T09:24:42;118336.50;;;-144.97;88.56
42415;BME280;28058;46.344;17.786;2023-02-28T09:27:11;118336.50;;;-144.97;90.99
42415;BME280;28058;46.344;17.786;2023-02-28T09:29:37;118336.50;;;-144.97;86.23
42415;BME280;28058;46.344;17.786;2023-02-28T09:32:05;118336.50;;;-144.97;85.91
42415;BME280;28058;46.344;17.786;2023-02-28T09:34:32;118336.50;;;-144.97;90.81
42415;BME280;28058;46.344;17.786;2023-02-28T09:36:59;118336.50;;;-144.97;95.31
42415;BME280;28058;46.344;17.786;2023-02-28T09:39:26;118336.50;;;-144.97;96.57
42415;BME280;28058;46.344;17.786;2023-02-28T09:41:55;118336.50;;;-144.97;92.08
42415;BME280;28058;46.344;17.786;2023-02-28T09:44:28;118336.50;;;-144.97;91.37
42415;BME280;28058;46.344;17.786;2023-02-28T09:47:05;118336.50;;;-144.97;92.76
42415;BME280;28058;46.344;17.786;2023-02-28T09:49:40;118336.50;;;-144.97;90.77
42415;BME280;28058;46.344;17.786;2023-02-28T09:52:12;118336.50;;;-144.97;88.49
42415;BME280;28058;46.344;17.786;2023-02-28T09:54:40;118336.50;;;-144.97;90.65
42415;BME280;28058;46.344;17.786;2023-02-28T10:02:41;118336.50;;;-144.97;93.10
42415;BME280;28058;46.344;17.786;2023-02-28T10:05:14;118336.50;;;-144.97;91.23
42415;BME280;28058;46.344;17.786;2023-02-28T10:08:10;118336.50;;;-144.97;93.18
42415;BME280;28058;46.344;17.786;2023-02-28T10:10:44;118336.50;;;-144.97;92.12
42415;BME280;28058;46.344;17.786;2023-02-28T10:13:16;118336.50;;;-144.97;90.59
42415;BME280;28058;46.344;17.786;2023-02-28T10:15:46;118336.50;;;-144.97;88.57
42415;BME280;28058;46.344;17.786;2023-02-28T10:18:24;118336.50;;;-144.97;89.15
42415;BME280;28058;46.344;17.786;2023-02-28T10:20:53;118336.50;;;-144.97;92.30
42415;BME280;28058;46.344;17.786;2023-02-28T10:23:56;118336.50;;;-144.97;90.12
42415;BME280;28058;46.344;17.786;2023-02-28T10:26:17;118336.50;;;-144.97;94.63
42415;BME280;28058;46.344;17.786;2023-02-28T10:28:44;118336.50;;;-144.97;93.10
42415;BME280;28058;46.344;17.786;2023-02-28T10:31:15;118336.50;;;-144.97;94.75
42415;BME280;28058;46.344;17.786;2023-02-28T10:33:44;118336.50;;;-144.97;95.73
42415;BME280;28058;46.344;17.786;2023-02-28T10:36:16;118336.50;;;-144.97;92.27
42415;BME280;28058;46.344;17.786;2023-02-28T10:38:45;118336.50;;;-144.97;93.92
42415;BME280;28058;46.344;17.786;2023-02-28T10:41:27;118336.50;;;-144.97;92.32
42415;BME280;28058;46.344;17.786;2023-02-28T10:44:14;118336.50;;;-144.97;92.58
42415;BME280;28058;46.344;17.786;2023-02-28T10:46:42;118336.50;;;-144.97;94.47
42415;BME280;28058;46.344;17.786;2023-02-28T10:49:21;118336.50;;;-144.97;94.92
42415;BME280;28058;46.344;17.786;2023-02-28T10:51:52;118336.50;;;-144.97;94.37
42415;BME280;28058;46.344;17.786;2023-02-28T10:54:36;118336.50;;;-144.97;94.43
42415;BME280;28058;46.344;17.786;2023-02-28T10:59:42;118336.50;;;-144.97;92.23
42415;BME280;28058;46.344;17.786;2023-02-28T11:02:36;118336.50;;;-144.97;89.97
42415;BME280;28058;46.344;17.786;2023-02-28T11:05:27;118336.50;;;-144.97;90.80
42415;BME280;28058;46.344;17.786;2023-02-28T11:10:32;118336.50;;;-144.97;89.89
42415;BME280;28058;46.344;17.786;2023-02-28T11:13:01;118336.50;;;-144.97;89.75
42415;BME280;28058;46.344;17.786;2023-02-28T11:15:32;118336.50;;;-144.97;87.15
42415;BME280;28058;46.344;17.786;2023-02-28T11:18:05;118336.50;;;-144.97;88.11
42415;BME280;28058;46.344;17.786;2023-02-28T11:20:34;118336.50;;;-144.97;86.26
42415;BME280;28058;46.344;17.786;2023-02-28T11:23:02;118336.50;;;-144.97;88.43
42415;BME280;28058;46.344;17.786;2023-02-28T11:25:38;118336.50;;;-144.97;88.30
42415;BME280;28058;46.344;17.786;2023-02-28T11:28:23;118336.50;;;-144.97;86.67
42415;BME280;28058;46.344;17.786;2023-02-28T11:33:41;118336.50;;;-144.97;86.46
42415;BME280;28058;46.344;17.786;2023-02-28T11:36:30;118336.50;;;-144.97;83.72
42415;BME280;28058;46.344;17.786;2023-02-28T11:39:07;118336.50;;;-144.97;81.45
42415;BME280;28058;46.344;17.786;2023-02-28T11:42:04;118336.50;;;-144.97;80.02
42415;BME280;28058;46.344;17.786;2023-02-28T11:52:54;118336.50;;;-144.97;86.39
42415;BME280;28058;46.344;17.786;2023-02-28T12:03:26;118336.50;;;-144.97;85.77
42415;BME280;28058;46.344;17.786;2023-02-28T12:08:59;118336.50;;;-144.97;84.56
42415;BME280;28058;46.344;17.786;2023-02-28T12:11:39;118336.50;;;-144.97;86.71
42415;BME280;28058;46.344;17.786;2023-02-28T12:14:38;118336.50;;;-144.97;87.57
42415;BME280;28058;46.344;17.786;2023-02-28T12:20:05;118336.50;;;-144.97;85.86
42415;BME280;28058;46.344;17.786;2023-02-28T12:28:16;118336.50;;;-144.97;85.04
42415;BME280;28058;46.344;17.786;2023-02-28T12:31:06;118336.50;;;-144.97;86.24
42415;BME280;28058;46.344;17.786;2023-02-28T12:33:42;118336.50;;;-144.97;87.88
42415;BME280;28058;46.344;17.786;2023-02-28T12:36:11;118336.50;;;-144.97;89.91
42415;BME280;28058;46.344;17.786;2023-02-28T12:44:18;118336.50;;;-144.97;86.15
42415;BME280;28058;46.344;17.786;2023-02-28T12:46:50;118336.50;;;-144.97;85.60
42415;BME280;28058;46.344;17.786;2023-02-28T12:49:34;118336.50;;;-144.97;85.36
42415;BME280;28058;46.344;17.786;2023-02-28T12:52:04;118336.50;;;-144.97;87.15
42415;BME280;28058;46.344;17.786;2023-02-28T12:54:48;118336.50;;;-144.97;87.21
42415;BME280;28058;46.344;17.786;2023-02-28T12:57:36;118336.50;;;-144.97;88.19
42415;BME280;28058;46.344;17.786;2023-02-28T13:00:13;118336.50;;;-144.97;87.63
42415;BME280;28058;46.344;17.786;2023-02-28T13:05:24;118336.50;;;-144.97;85.73
42415;BME280;28058;46.344;17.786;2023-02-28T13:10:43;118336.50;;;-144.97;86.00
42415;BME280;28058;46.344;17.786;2023-02-28T13:13:15;118336.50;;;-144.97;87.06
42415;BME280;28058;46.344;17.786;2023-02-28T13:16:09;118336.50;;;-144.97;87.23
42415;BME280;28058;46.344;17.786;2023-02-28T13:21:26;118336.50;;;-144.97;87.67
42415;BME280;28058;46.344;17.786;2023-02-28T13:29:01;118336.50;;;-144.97;89.76
42415;BME280;28058;46.344;17.786;2023-02-28T13:31:28;118336.50;;;-144.97;89.27
42415;BME280;28058;46.344;17.786;2023-02-28T13:36:29;118336.50;;;-144.97;88.64
42415;BME280;28058;46.344;17.786;2023-02-28T13:39:03;118336.50;;;-144.97;88.70
42415;BME280;28058;46.344;17.786;2023-02-28T13:41:49;118336.50;;;-144.97;91.13
42415;BME280;28058;46.344;17.786;2023-02-28T13:44:21;118336.50;;;-144.97;91.10
42415;BME280;28058;46.344;17.786;2023-02-28T14:05:43;118336.50;;;-144.97;92.02
42415;BME280;28058;46.344;17.786;2023-02-28T14:08:18;118336.50;;;-144.97;93.33
42415;BME280;28058;46.344;17.786;2023-02-28T14:10:49;118336.50;;;-144.97;93.68
42415;BME280;28058;46.344;17.786;2023-02-28T14:16:17;118336.50;;;-144.97;92.13
42415;BME280;28058;46.344;17.786;2023-02-28T14:18:55;118336.50;;;-144.97;92.89
42415;BME280;28058;46.344;17.786;2023-02-28T14:21:31;118336.50;;;-144.97;91.84
42415;BME280;28058;46.344;17.786;2023-02-28T14:38:14;118336.50;;;-144.97;93.41